<?xml version="1.0" encoding="UTF-8" standalone="no" ?>
<gpx xmlns="http://www.topografix.com/GPX/1/1" xmlns:xsi="http://www.w3.org/2001/XMLSchema-instance" xsi:schemaLocation="http://www.topografix.com/GPX/1/1 http://www.topografix.com/GPX/1/1/gpx.xsd" version="1.1" creator="VisuGPX - https://www.visugpx.com">
  <metadata>
    <name>Pernes-les-Fontaines</name>
  </metadata>
  <trk>
    <name><![CDATA[Pernes-les-Fontaines - 6338 - UtagawaVTT.com]]></name>
    <trkseg>
      <trkpt lat="43.99349" lon="5.05233">
        <ele>58.599998</ele>
        <time>2012-01-28T08:07:23Z</time>
      </trkpt>
      <trkpt lat="43.99285" lon="5.051">
        <ele>55.599998</ele>
        <time>2012-01-28T08:07:42Z</time>
      </trkpt>
      <trkpt lat="43.99238" lon="5.04963">
        <ele>50</ele>
        <time>2012-01-28T08:08:03Z</time>
      </trkpt>
      <trkpt lat="43.99225" lon="5.04957">
        <ele>49.400002</ele>
        <time>2012-01-28T08:08:07Z</time>
      </trkpt>
      <trkpt lat="43.99069" lon="5.0509">
        <ele>61</ele>
        <time>2012-01-28T08:09:05Z</time>
      </trkpt>
      <trkpt lat="43.99026" lon="5.05096">
        <ele>65.800003</ele>
        <time>2012-01-28T08:09:27Z</time>
      </trkpt>
      <trkpt lat="43.99009" lon="5.05088">
        <ele>67.400002</ele>
        <time>2012-01-28T08:09:36Z</time>
      </trkpt>
      <trkpt lat="43.98971" lon="5.05071">
        <ele>69.400002</ele>
        <time>2012-01-28T08:09:52Z</time>
      </trkpt>
      <trkpt lat="43.98777" lon="5.04968">
        <ele>69.599998</ele>
        <time>2012-01-28T08:10:40Z</time>
      </trkpt>
      <trkpt lat="43.98716" lon="5.04953">
        <ele>69.400002</ele>
        <time>2012-01-28T08:10:53Z</time>
      </trkpt>
      <trkpt lat="43.98696" lon="5.04973">
        <ele>69</ele>
        <time>2012-01-28T08:10:58Z</time>
      </trkpt>
      <trkpt lat="43.98685" lon="5.05011">
        <ele>69</ele>
        <time>2012-01-28T08:11:04Z</time>
      </trkpt>
      <trkpt lat="43.987" lon="5.05124">
        <ele>69</ele>
        <time>2012-01-28T08:11:22Z</time>
      </trkpt>
      <trkpt lat="43.98703" lon="5.05222">
        <ele>68.400002</ele>
        <time>2012-01-28T08:11:36Z</time>
      </trkpt>
      <trkpt lat="43.98679" lon="5.05297">
        <ele>68.400002</ele>
        <time>2012-01-28T08:11:48Z</time>
      </trkpt>
      <trkpt lat="43.9866" lon="5.05319">
        <ele>68.599998</ele>
        <time>2012-01-28T08:11:53Z</time>
      </trkpt>
      <trkpt lat="43.98655" lon="5.0532">
        <ele>68.599998</ele>
        <time>2012-01-28T08:11:54Z</time>
      </trkpt>
      <trkpt lat="43.98603" lon="5.05334">
        <ele>68</ele>
        <time>2012-01-28T08:12:05Z</time>
      </trkpt>
      <trkpt lat="43.98595" lon="5.05355">
        <ele>67.800003</ele>
        <time>2012-01-28T08:12:09Z</time>
      </trkpt>
      <trkpt lat="43.98602" lon="5.05538">
        <ele>67.599998</ele>
        <time>2012-01-28T08:12:34Z</time>
      </trkpt>
      <trkpt lat="43.98509" lon="5.05543">
        <ele>67</ele>
        <time>2012-01-28T08:12:53Z</time>
      </trkpt>
      <trkpt lat="43.98489" lon="5.05527">
        <ele>67</ele>
        <time>2012-01-28T08:12:58Z</time>
      </trkpt>
      <trkpt lat="43.9847" lon="5.05429">
        <ele>66.400002</ele>
        <time>2012-01-28T08:13:12Z</time>
      </trkpt>
      <trkpt lat="43.98451" lon="5.05396">
        <ele>66.800003</ele>
        <time>2012-01-28T08:13:18Z</time>
      </trkpt>
      <trkpt lat="43.98412" lon="5.05332">
        <ele>66.599998</ele>
        <time>2012-01-28T08:13:30Z</time>
      </trkpt>
      <trkpt lat="43.98409" lon="5.05257">
        <ele>66.599998</ele>
        <time>2012-01-28T08:13:41Z</time>
      </trkpt>
      <trkpt lat="43.98431" lon="5.05139">
        <ele>66.199997</ele>
        <time>2012-01-28T08:13:57Z</time>
      </trkpt>
      <trkpt lat="43.98432" lon="5.05033">
        <ele>66</ele>
        <time>2012-01-28T08:14:11Z</time>
      </trkpt>
      <trkpt lat="43.98427" lon="5.04974">
        <ele>65.800003</ele>
        <time>2012-01-28T08:14:19Z</time>
      </trkpt>
      <trkpt lat="43.98443" lon="5.04927">
        <ele>65.800003</ele>
        <time>2012-01-28T08:14:26Z</time>
      </trkpt>
      <trkpt lat="43.98499" lon="5.0476">
        <ele>65.199997</ele>
        <time>2012-01-28T08:14:52Z</time>
      </trkpt>
      <trkpt lat="43.98489" lon="5.0474">
        <ele>65</ele>
        <time>2012-01-28T08:14:57Z</time>
      </trkpt>
      <trkpt lat="43.98479" lon="5.04744">
        <ele>65.400002</ele>
        <time>2012-01-28T08:15:02Z</time>
      </trkpt>
      <trkpt lat="43.98447" lon="5.04829">
        <ele>71.800003</ele>
        <time>2012-01-28T08:15:28Z</time>
      </trkpt>
      <trkpt lat="43.98436" lon="5.04852">
        <ele>73.199997</ele>
        <time>2012-01-28T08:15:35Z</time>
      </trkpt>
      <trkpt lat="43.98391" lon="5.04926">
        <ele>75.800003</ele>
        <time>2012-01-28T08:16:00Z</time>
      </trkpt>
      <trkpt lat="43.9837" lon="5.04984">
        <ele>75.800003</ele>
        <time>2012-01-28T08:16:13Z</time>
      </trkpt>
      <trkpt lat="43.98351" lon="5.05151">
        <ele>75.800003</ele>
        <time>2012-01-28T08:16:44Z</time>
      </trkpt>
      <trkpt lat="43.98335" lon="5.05146">
        <ele>75.599998</ele>
        <time>2012-01-28T08:16:48Z</time>
      </trkpt>
      <trkpt lat="43.983" lon="5.05097">
        <ele>74</ele>
        <time>2012-01-28T08:16:56Z</time>
      </trkpt>
      <trkpt lat="43.9824" lon="5.05011">
        <ele>69.199997</ele>
        <time>2012-01-28T08:17:10Z</time>
      </trkpt>
      <trkpt lat="43.98207" lon="5.05077">
        <ele>68.400002</ele>
        <time>2012-01-28T08:17:25Z</time>
      </trkpt>
      <trkpt lat="43.98164" lon="5.05125">
        <ele>68.599998</ele>
        <time>2012-01-28T08:17:37Z</time>
      </trkpt>
      <trkpt lat="43.98136" lon="5.05133">
        <ele>68.599998</ele>
        <time>2012-01-28T08:17:43Z</time>
      </trkpt>
      <trkpt lat="43.98064" lon="5.05086">
        <ele>71.599998</ele>
        <time>2012-01-28T08:18:05Z</time>
      </trkpt>
      <trkpt lat="43.98033" lon="5.0508">
        <ele>72.199997</ele>
        <time>2012-01-28T08:18:12Z</time>
      </trkpt>
      <trkpt lat="43.97743" lon="5.05035">
        <ele>71.800003</ele>
        <time>2012-01-28T08:19:13Z</time>
      </trkpt>
      <trkpt lat="43.97631" lon="5.05014">
        <ele>68.400002</ele>
        <time>2012-01-28T08:19:39Z</time>
      </trkpt>
      <trkpt lat="43.97603" lon="5.05075">
        <ele>70.599998</ele>
        <time>2012-01-28T08:19:55Z</time>
      </trkpt>
      <trkpt lat="43.97597" lon="5.05231">
        <ele>77.599998</ele>
        <time>2012-01-28T08:20:32Z</time>
      </trkpt>
      <trkpt lat="43.97567" lon="5.05554">
        <ele>88.199997</ele>
        <time>2012-01-28T08:21:53Z</time>
      </trkpt>
      <trkpt lat="43.9752" lon="5.0569">
        <ele>93.800003</ele>
        <time>2012-01-28T08:22:34Z</time>
      </trkpt>
      <trkpt lat="43.97514" lon="5.05923">
        <ele>103.199997</ele>
        <time>2012-01-28T08:23:35Z</time>
      </trkpt>
      <trkpt lat="43.97465" lon="5.05966">
        <ele>105.599998</ele>
        <time>2012-01-28T08:23:56Z</time>
      </trkpt>
      <trkpt lat="43.97458" lon="5.06002">
        <ele>106.400002</ele>
        <time>2012-01-28T08:24:05Z</time>
      </trkpt>
      <trkpt lat="43.97419" lon="5.06015">
        <ele>108.599998</ele>
        <time>2012-01-28T08:24:19Z</time>
      </trkpt>
      <trkpt lat="43.97394" lon="5.06045">
        <ele>110.199997</ele>
        <time>2012-01-28T08:24:33Z</time>
      </trkpt>
      <trkpt lat="43.97375" lon="5.06026">
        <ele>113.400002</ele>
        <time>2012-01-28T08:24:46Z</time>
      </trkpt>
      <trkpt lat="43.97349" lon="5.05959">
        <ele>119.599998</ele>
        <time>2012-01-28T08:25:27Z</time>
      </trkpt>
      <trkpt lat="43.97352" lon="5.0595">
        <ele>119.599998</ele>
        <time>2012-01-28T08:25:32Z</time>
      </trkpt>
      <trkpt lat="43.9738" lon="5.05706">
        <ele>115.800003</ele>
        <time>2012-01-28T08:26:35Z</time>
      </trkpt>
      <trkpt lat="43.97363" lon="5.05624">
        <ele>110</ele>
        <time>2012-01-28T08:27:03Z</time>
      </trkpt>
      <trkpt lat="43.9737" lon="5.05602">
        <ele>106.199997</ele>
        <time>2012-01-28T08:27:12Z</time>
      </trkpt>
      <trkpt lat="43.97364" lon="5.05565">
        <ele>99.199997</ele>
        <time>2012-01-28T08:27:27Z</time>
      </trkpt>
      <trkpt lat="43.97302" lon="5.05536">
        <ele>95.800003</ele>
        <time>2012-01-28T08:27:50Z</time>
      </trkpt>
      <trkpt lat="43.97295" lon="5.05518">
        <ele>94.400002</ele>
        <time>2012-01-28T08:28:43Z</time>
      </trkpt>
      <trkpt lat="43.97324" lon="5.05498">
        <ele>89.199997</ele>
        <time>2012-01-28T08:28:57Z</time>
      </trkpt>
      <trkpt lat="43.97382" lon="5.05523">
        <ele>87.400002</ele>
        <time>2012-01-28T08:29:17Z</time>
      </trkpt>
      <trkpt lat="43.97396" lon="5.05524">
        <ele>85.199997</ele>
        <time>2012-01-28T08:29:22Z</time>
      </trkpt>
      <trkpt lat="43.97377" lon="5.05484">
        <ele>80</ele>
        <time>2012-01-28T08:29:36Z</time>
      </trkpt>
      <trkpt lat="43.9732" lon="5.05463">
        <ele>79.199997</ele>
        <time>2012-01-28T08:29:52Z</time>
      </trkpt>
      <trkpt lat="43.9732" lon="5.05448">
        <ele>79.599998</ele>
        <time>2012-01-28T08:29:56Z</time>
      </trkpt>
      <trkpt lat="43.97353" lon="5.05345">
        <ele>78</ele>
        <time>2012-01-28T08:30:14Z</time>
      </trkpt>
      <trkpt lat="43.97418" lon="5.05284">
        <ele>78.800003</ele>
        <time>2012-01-28T08:30:34Z</time>
      </trkpt>
      <trkpt lat="43.97468" lon="5.05225">
        <ele>71.599998</ele>
        <time>2012-01-28T08:30:47Z</time>
      </trkpt>
      <trkpt lat="43.97463" lon="5.05143">
        <ele>71.800003</ele>
        <time>2012-01-28T08:31:02Z</time>
      </trkpt>
      <trkpt lat="43.97452" lon="5.05091">
        <ele>71.199997</ele>
        <time>2012-01-28T08:31:14Z</time>
      </trkpt>
      <trkpt lat="43.97468" lon="5.0507">
        <ele>71.800003</ele>
        <time>2012-01-28T08:31:22Z</time>
      </trkpt>
      <trkpt lat="43.97473" lon="5.05034">
        <ele>70.599998</ele>
        <time>2012-01-28T08:31:28Z</time>
      </trkpt>
      <trkpt lat="43.97464" lon="5.04975">
        <ele>67.199997</ele>
        <time>2012-01-28T08:31:37Z</time>
      </trkpt>
      <trkpt lat="43.97449" lon="5.04961">
        <ele>64</ele>
        <time>2012-01-28T08:31:44Z</time>
      </trkpt>
      <trkpt lat="43.974" lon="5.04998">
        <ele>64.800003</ele>
        <time>2012-01-28T08:32:00Z</time>
      </trkpt>
      <trkpt lat="43.97376" lon="5.04989">
        <ele>62.599998</ele>
        <time>2012-01-28T08:32:07Z</time>
      </trkpt>
      <trkpt lat="43.97336" lon="5.05047">
        <ele>61.200001</ele>
        <time>2012-01-28T08:32:24Z</time>
      </trkpt>
      <trkpt lat="43.9731" lon="5.05008">
        <ele>62</ele>
        <time>2012-01-28T08:32:35Z</time>
      </trkpt>
      <trkpt lat="43.97314" lon="5.04963">
        <ele>62.799999</ele>
        <time>2012-01-28T08:32:44Z</time>
      </trkpt>
      <trkpt lat="43.97283" lon="5.04919">
        <ele>64.800003</ele>
        <time>2012-01-28T08:32:57Z</time>
      </trkpt>
      <trkpt lat="43.97255" lon="5.04915">
        <ele>66.800003</ele>
        <time>2012-01-28T08:33:07Z</time>
      </trkpt>
      <trkpt lat="43.97245" lon="5.04901">
        <ele>67</ele>
        <time>2012-01-28T08:33:11Z</time>
      </trkpt>
      <trkpt lat="43.97151" lon="5.04972">
        <ele>66.599998</ele>
        <time>2012-01-28T08:33:37Z</time>
      </trkpt>
      <trkpt lat="43.97114" lon="5.04966">
        <ele>68</ele>
        <time>2012-01-28T08:33:48Z</time>
      </trkpt>
      <trkpt lat="43.97087" lon="5.04942">
        <ele>67.400002</ele>
        <time>2012-01-28T08:33:55Z</time>
      </trkpt>
      <trkpt lat="43.97051" lon="5.04948">
        <ele>67.199997</ele>
        <time>2012-01-28T08:34:04Z</time>
      </trkpt>
      <trkpt lat="43.97018" lon="5.04968">
        <ele>69.599998</ele>
        <time>2012-01-28T08:34:17Z</time>
      </trkpt>
      <trkpt lat="43.96999" lon="5.05018">
        <ele>71.800003</ele>
        <time>2012-01-28T08:34:35Z</time>
      </trkpt>
      <trkpt lat="43.97006" lon="5.05076">
        <ele>77.400002</ele>
        <time>2012-01-28T08:34:58Z</time>
      </trkpt>
      <trkpt lat="43.96999" lon="5.05087">
        <ele>78.199997</ele>
        <time>2012-01-28T08:35:04Z</time>
      </trkpt>
      <trkpt lat="43.9689" lon="5.05104">
        <ele>90.599998</ele>
        <time>2012-01-28T08:37:02Z</time>
      </trkpt>
      <trkpt lat="43.96907" lon="5.05148">
        <ele>100</ele>
        <time>2012-01-28T08:37:39Z</time>
      </trkpt>
      <trkpt lat="43.96943" lon="5.05217">
        <ele>107.400002</ele>
        <time>2012-01-28T08:38:28Z</time>
      </trkpt>
      <trkpt lat="43.9695" lon="5.05251">
        <ele>110.599998</ele>
        <time>2012-01-28T08:38:51Z</time>
      </trkpt>
      <trkpt lat="43.96953" lon="5.05549">
        <ele>132.199997</ele>
        <time>2012-01-28T08:41:23Z</time>
      </trkpt>
      <trkpt lat="43.96979" lon="5.05679">
        <ele>150.199997</ele>
        <time>2012-01-28T08:42:33Z</time>
      </trkpt>
      <trkpt lat="43.97015" lon="5.05732">
        <ele>155.399994</ele>
        <time>2012-01-28T08:43:34Z</time>
      </trkpt>
      <trkpt lat="43.97027" lon="5.05742">
        <ele>156.399994</ele>
        <time>2012-01-28T08:43:43Z</time>
      </trkpt>
      <trkpt lat="43.97135" lon="5.05839">
        <ele>164.199997</ele>
        <time>2012-01-28T08:44:52Z</time>
      </trkpt>
      <trkpt lat="43.97164" lon="5.05913">
        <ele>162.399994</ele>
        <time>2012-01-28T08:45:06Z</time>
      </trkpt>
      <trkpt lat="43.97084" lon="5.0608">
        <ele>175</ele>
        <time>2012-01-28T08:46:15Z</time>
      </trkpt>
      <trkpt lat="43.97044" lon="5.06119">
        <ele>181.399994</ele>
        <time>2012-01-28T08:46:43Z</time>
      </trkpt>
      <trkpt lat="43.97067" lon="5.06196">
        <ele>184.600006</ele>
        <time>2012-01-28T08:47:36Z</time>
      </trkpt>
      <trkpt lat="43.97056" lon="5.06219">
        <ele>186.199997</ele>
        <time>2012-01-28T08:47:48Z</time>
      </trkpt>
      <trkpt lat="43.97033" lon="5.06229">
        <ele>185</ele>
        <time>2012-01-28T08:49:42Z</time>
      </trkpt>
      <trkpt lat="43.9702" lon="5.06232">
        <ele>181</ele>
        <time>2012-01-28T08:49:54Z</time>
      </trkpt>
      <trkpt lat="43.97" lon="5.06328">
        <ele>169.199997</ele>
        <time>2012-01-28T08:50:21Z</time>
      </trkpt>
      <trkpt lat="43.96965" lon="5.06335">
        <ele>162.800003</ele>
        <time>2012-01-28T08:50:35Z</time>
      </trkpt>
      <trkpt lat="43.96934" lon="5.06403">
        <ele>160.399994</ele>
        <time>2012-01-28T08:50:56Z</time>
      </trkpt>
      <trkpt lat="43.96923" lon="5.06422">
        <ele>159.399994</ele>
        <time>2012-01-28T08:51:02Z</time>
      </trkpt>
      <trkpt lat="43.96886" lon="5.06428">
        <ele>158</ele>
        <time>2012-01-28T08:51:13Z</time>
      </trkpt>
      <trkpt lat="43.96837" lon="5.06393">
        <ele>150.800003</ele>
        <time>2012-01-28T08:51:27Z</time>
      </trkpt>
      <trkpt lat="43.96813" lon="5.06363">
        <ele>144</ele>
        <time>2012-01-28T08:51:41Z</time>
      </trkpt>
      <trkpt lat="43.96797" lon="5.06369">
        <ele>143.600006</ele>
        <time>2012-01-28T08:51:50Z</time>
      </trkpt>
      <trkpt lat="43.96793" lon="5.064">
        <ele>149.399994</ele>
        <time>2012-01-28T08:52:15Z</time>
      </trkpt>
      <trkpt lat="43.96779" lon="5.06435">
        <ele>149.399994</ele>
        <time>2012-01-28T08:52:54Z</time>
      </trkpt>
      <trkpt lat="43.96764" lon="5.06519">
        <ele>145.399994</ele>
        <time>2012-01-28T08:53:19Z</time>
      </trkpt>
      <trkpt lat="43.9671" lon="5.06591">
        <ele>147.199997</ele>
        <time>2012-01-28T08:53:47Z</time>
      </trkpt>
      <trkpt lat="43.9666" lon="5.06599">
        <ele>146.399994</ele>
        <time>2012-01-28T08:54:05Z</time>
      </trkpt>
      <trkpt lat="43.96645" lon="5.0658">
        <ele>142.800003</ele>
        <time>2012-01-28T08:54:14Z</time>
      </trkpt>
      <trkpt lat="43.96644" lon="5.06574">
        <ele>140.600006</ele>
        <time>2012-01-28T08:54:19Z</time>
      </trkpt>
      <trkpt lat="43.96642" lon="5.06418">
        <ele>127</ele>
        <time>2012-01-28T08:55:23Z</time>
      </trkpt>
      <trkpt lat="43.96621" lon="5.06387">
        <ele>124.800003</ele>
        <time>2012-01-28T08:55:32Z</time>
      </trkpt>
      <trkpt lat="43.96605" lon="5.06371">
        <ele>122.199997</ele>
        <time>2012-01-28T08:55:39Z</time>
      </trkpt>
      <trkpt lat="43.96607" lon="5.06258">
        <ele>119</ele>
        <time>2012-01-28T08:56:03Z</time>
      </trkpt>
      <trkpt lat="43.96603" lon="5.06237">
        <ele>117.199997</ele>
        <time>2012-01-28T08:56:07Z</time>
      </trkpt>
      <trkpt lat="43.96616" lon="5.06194">
        <ele>110.599998</ele>
        <time>2012-01-28T08:56:20Z</time>
      </trkpt>
      <trkpt lat="43.96594" lon="5.06192">
        <ele>108.400002</ele>
        <time>2012-01-28T08:56:26Z</time>
      </trkpt>
      <trkpt lat="43.96572" lon="5.06231">
        <ele>104.599998</ele>
        <time>2012-01-28T08:56:38Z</time>
      </trkpt>
      <trkpt lat="43.96532" lon="5.06262">
        <ele>104.199997</ele>
        <time>2012-01-28T08:56:51Z</time>
      </trkpt>
      <trkpt lat="43.96483" lon="5.06436">
        <ele>116.199997</ele>
        <time>2012-01-28T08:58:01Z</time>
      </trkpt>
      <trkpt lat="43.96419" lon="5.06538">
        <ele>123</ele>
        <time>2012-01-28T08:58:53Z</time>
      </trkpt>
      <trkpt lat="43.96407" lon="5.06536">
        <ele>124.599998</ele>
        <time>2012-01-28T08:59:47Z</time>
      </trkpt>
      <trkpt lat="43.96407" lon="5.06514">
        <ele>126.199997</ele>
        <time>2012-01-28T08:59:56Z</time>
      </trkpt>
      <trkpt lat="43.96407" lon="5.06492">
        <ele>127.199997</ele>
        <time>2012-01-28T09:00:04Z</time>
      </trkpt>
      <trkpt lat="43.96411" lon="5.06458">
        <ele>127</ele>
        <time>2012-01-28T09:00:14Z</time>
      </trkpt>
      <trkpt lat="43.96388" lon="5.06421">
        <ele>126.199997</ele>
        <time>2012-01-28T09:00:25Z</time>
      </trkpt>
      <trkpt lat="43.96377" lon="5.06364">
        <ele>122.800003</ele>
        <time>2012-01-28T09:00:36Z</time>
      </trkpt>
      <trkpt lat="43.9625" lon="5.06239">
        <ele>104.800003</ele>
        <time>2012-01-28T09:01:41Z</time>
      </trkpt>
      <trkpt lat="43.96183" lon="5.06357">
        <ele>103.800003</ele>
        <time>2012-01-28T09:02:22Z</time>
      </trkpt>
      <trkpt lat="43.9618" lon="5.06486">
        <ele>107.400002</ele>
        <time>2012-01-28T09:03:02Z</time>
      </trkpt>
      <trkpt lat="43.9618" lon="5.06513">
        <ele>107.400002</ele>
        <time>2012-01-28T09:03:08Z</time>
      </trkpt>
      <trkpt lat="43.96117" lon="5.06719">
        <ele>101.599998</ele>
        <time>2012-01-28T09:03:52Z</time>
      </trkpt>
      <trkpt lat="43.96127" lon="5.06917">
        <ele>100.800003</ele>
        <time>2012-01-28T09:04:40Z</time>
      </trkpt>
      <trkpt lat="43.96108" lon="5.06957">
        <ele>102.199997</ele>
        <time>2012-01-28T09:08:54Z</time>
      </trkpt>
      <trkpt lat="43.96117" lon="5.06962">
        <ele>102.400002</ele>
        <time>2012-01-28T09:09:09Z</time>
      </trkpt>
      <trkpt lat="43.96113" lon="5.07012">
        <ele>103.400002</ele>
        <time>2012-01-28T09:09:23Z</time>
      </trkpt>
      <trkpt lat="43.96175" lon="5.07042">
        <ele>106.599998</ele>
        <time>2012-01-28T09:09:50Z</time>
      </trkpt>
      <trkpt lat="43.96296" lon="5.07145">
        <ele>114.800003</ele>
        <time>2012-01-28T09:10:47Z</time>
      </trkpt>
      <trkpt lat="43.96231" lon="5.07168">
        <ele>122</ele>
        <time>2012-01-28T09:11:25Z</time>
      </trkpt>
      <trkpt lat="43.96193" lon="5.07239">
        <ele>124.599998</ele>
        <time>2012-01-28T09:12:23Z</time>
      </trkpt>
      <trkpt lat="43.96182" lon="5.07291">
        <ele>126.400002</ele>
        <time>2012-01-28T09:12:39Z</time>
      </trkpt>
      <trkpt lat="43.96274" lon="5.07504">
        <ele>132.199997</ele>
        <time>2012-01-28T09:13:43Z</time>
      </trkpt>
      <trkpt lat="43.96345" lon="5.07555">
        <ele>135</ele>
        <time>2012-01-28T09:14:14Z</time>
      </trkpt>
      <trkpt lat="43.96272" lon="5.07685">
        <ele>147.600006</ele>
        <time>2012-01-28T09:15:35Z</time>
      </trkpt>
      <trkpt lat="43.96245" lon="5.07799">
        <ele>153.399994</ele>
        <time>2012-01-28T09:17:09Z</time>
      </trkpt>
      <trkpt lat="43.9629" lon="5.07981">
        <ele>160.199997</ele>
        <time>2012-01-28T09:18:17Z</time>
      </trkpt>
      <trkpt lat="43.96288" lon="5.08052">
        <ele>168.600006</ele>
        <time>2012-01-28T09:18:44Z</time>
      </trkpt>
      <trkpt lat="43.96294" lon="5.08065">
        <ele>169.199997</ele>
        <time>2012-01-28T09:18:50Z</time>
      </trkpt>
      <trkpt lat="43.96328" lon="5.08073">
        <ele>171.800003</ele>
        <time>2012-01-28T09:19:11Z</time>
      </trkpt>
      <trkpt lat="43.96338" lon="5.08095">
        <ele>171.399994</ele>
        <time>2012-01-28T09:19:20Z</time>
      </trkpt>
      <trkpt lat="43.96371" lon="5.08053">
        <ele>172.600006</ele>
        <time>2012-01-28T09:19:39Z</time>
      </trkpt>
      <trkpt lat="43.96498" lon="5.08089">
        <ele>172.800003</ele>
        <time>2012-01-28T09:20:29Z</time>
      </trkpt>
      <trkpt lat="43.96564" lon="5.08198">
        <ele>172.399994</ele>
        <time>2012-01-28T09:21:00Z</time>
      </trkpt>
      <trkpt lat="43.96601" lon="5.08196">
        <ele>177.600006</ele>
        <time>2012-01-28T09:21:19Z</time>
      </trkpt>
      <trkpt lat="43.96682" lon="5.08264">
        <ele>186.199997</ele>
        <time>2012-01-28T09:22:15Z</time>
      </trkpt>
      <trkpt lat="43.96734" lon="5.08305">
        <ele>183.399994</ele>
        <time>2012-01-28T09:29:32Z</time>
      </trkpt>
      <trkpt lat="43.96779" lon="5.08539">
        <ele>182.800003</ele>
        <time>2012-01-28T09:31:14Z</time>
      </trkpt>
      <trkpt lat="43.96798" lon="5.08558">
        <ele>185</ele>
        <time>2012-01-28T09:32:11Z</time>
      </trkpt>
      <trkpt lat="43.96828" lon="5.08539">
        <ele>185.600006</ele>
        <time>2012-01-28T09:33:14Z</time>
      </trkpt>
      <trkpt lat="43.96845" lon="5.08556">
        <ele>186.399994</ele>
        <time>2012-01-28T09:33:24Z</time>
      </trkpt>
      <trkpt lat="43.96838" lon="5.08601">
        <ele>191</ele>
        <time>2012-01-28T09:33:43Z</time>
      </trkpt>
      <trkpt lat="43.96834" lon="5.08637">
        <ele>191.800003</ele>
        <time>2012-01-28T09:33:56Z</time>
      </trkpt>
      <trkpt lat="43.96819" lon="5.08696">
        <ele>195.399994</ele>
        <time>2012-01-28T09:34:43Z</time>
      </trkpt>
      <trkpt lat="43.96781" lon="5.08766">
        <ele>202.800003</ele>
        <time>2012-01-28T09:35:51Z</time>
      </trkpt>
      <trkpt lat="43.96733" lon="5.08802">
        <ele>212.600006</ele>
        <time>2012-01-28T09:36:30Z</time>
      </trkpt>
      <trkpt lat="43.96734" lon="5.08832">
        <ele>213.399994</ele>
        <time>2012-01-28T09:36:56Z</time>
      </trkpt>
      <trkpt lat="43.96742" lon="5.08852">
        <ele>213.399994</ele>
        <time>2012-01-28T09:37:03Z</time>
      </trkpt>
      <trkpt lat="43.96799" lon="5.08909">
        <ele>210.199997</ele>
        <time>2012-01-28T09:37:49Z</time>
      </trkpt>
      <trkpt lat="43.96832" lon="5.08917">
        <ele>211.199997</ele>
        <time>2012-01-28T09:38:07Z</time>
      </trkpt>
      <trkpt lat="43.96835" lon="5.08935">
        <ele>213</ele>
        <time>2012-01-28T09:38:16Z</time>
      </trkpt>
      <trkpt lat="43.96842" lon="5.08938">
        <ele>215.399994</ele>
        <time>2012-01-28T09:38:22Z</time>
      </trkpt>
      <trkpt lat="43.96856" lon="5.0894">
        <ele>215.199997</ele>
        <time>2012-01-28T09:38:46Z</time>
      </trkpt>
      <trkpt lat="43.96871" lon="5.08925">
        <ele>217.600006</ele>
        <time>2012-01-28T09:39:09Z</time>
      </trkpt>
      <trkpt lat="43.96881" lon="5.08911">
        <ele>217.600006</ele>
        <time>2012-01-28T09:39:15Z</time>
      </trkpt>
      <trkpt lat="43.96902" lon="5.08844">
        <ele>212.800003</ele>
        <time>2012-01-28T09:39:45Z</time>
      </trkpt>
      <trkpt lat="43.96892" lon="5.08814">
        <ele>205.600006</ele>
        <time>2012-01-28T09:40:10Z</time>
      </trkpt>
      <trkpt lat="43.96952" lon="5.08803">
        <ele>203.199997</ele>
        <time>2012-01-28T09:40:38Z</time>
      </trkpt>
      <trkpt lat="43.96994" lon="5.0877">
        <ele>204.600006</ele>
        <time>2012-01-28T09:41:01Z</time>
      </trkpt>
      <trkpt lat="43.97012" lon="5.08731">
        <ele>203.800003</ele>
        <time>2012-01-28T09:41:14Z</time>
      </trkpt>
      <trkpt lat="43.97014" lon="5.0873">
        <ele>203.399994</ele>
        <time>2012-01-28T09:41:15Z</time>
      </trkpt>
      <trkpt lat="43.9711" lon="5.08751">
        <ele>195.800003</ele>
        <time>2012-01-28T09:41:42Z</time>
      </trkpt>
      <trkpt lat="43.97132" lon="5.08779">
        <ele>201</ele>
        <time>2012-01-28T09:42:00Z</time>
      </trkpt>
      <trkpt lat="43.9714" lon="5.08813">
        <ele>201.399994</ele>
        <time>2012-01-28T09:42:12Z</time>
      </trkpt>
      <trkpt lat="43.97161" lon="5.08831">
        <ele>200.199997</ele>
        <time>2012-01-28T09:42:18Z</time>
      </trkpt>
      <trkpt lat="43.97222" lon="5.08828">
        <ele>207</ele>
        <time>2012-01-28T09:43:23Z</time>
      </trkpt>
      <trkpt lat="43.97315" lon="5.08845">
        <ele>210.199997</ele>
        <time>2012-01-28T09:43:58Z</time>
      </trkpt>
      <trkpt lat="43.97361" lon="5.08842">
        <ele>209.800003</ele>
        <time>2012-01-28T09:44:11Z</time>
      </trkpt>
      <trkpt lat="43.97395" lon="5.08795">
        <ele>208.399994</ele>
        <time>2012-01-28T09:44:29Z</time>
      </trkpt>
      <trkpt lat="43.97433" lon="5.08968">
        <ele>212.800003</ele>
        <time>2012-01-28T09:45:37Z</time>
      </trkpt>
      <trkpt lat="43.97462" lon="5.09046">
        <ele>214.199997</ele>
        <time>2012-01-28T09:45:58Z</time>
      </trkpt>
      <trkpt lat="43.97528" lon="5.09074">
        <ele>211.199997</ele>
        <time>2012-01-28T09:46:11Z</time>
      </trkpt>
      <trkpt lat="43.97555" lon="5.09106">
        <ele>209</ele>
        <time>2012-01-28T09:46:17Z</time>
      </trkpt>
      <trkpt lat="43.97582" lon="5.09129">
        <ele>205.199997</ele>
        <time>2012-01-28T09:46:24Z</time>
      </trkpt>
      <trkpt lat="43.97605" lon="5.09061">
        <ele>201.399994</ele>
        <time>2012-01-28T09:46:36Z</time>
      </trkpt>
      <trkpt lat="43.9763" lon="5.08962">
        <ele>190.199997</ele>
        <time>2012-01-28T09:46:55Z</time>
      </trkpt>
      <trkpt lat="43.97677" lon="5.0893">
        <ele>185.399994</ele>
        <time>2012-01-28T09:47:07Z</time>
      </trkpt>
      <trkpt lat="43.97669" lon="5.08873">
        <ele>184.399994</ele>
        <time>2012-01-28T09:47:18Z</time>
      </trkpt>
      <trkpt lat="43.97682" lon="5.08844">
        <ele>186.199997</ele>
        <time>2012-01-28T09:47:26Z</time>
      </trkpt>
      <trkpt lat="43.97689" lon="5.08829">
        <ele>186</ele>
        <time>2012-01-28T09:47:29Z</time>
      </trkpt>
      <trkpt lat="43.97735" lon="5.08755">
        <ele>176.600006</ele>
        <time>2012-01-28T09:47:44Z</time>
      </trkpt>
      <trkpt lat="43.97734" lon="5.08699">
        <ele>171.600006</ele>
        <time>2012-01-28T09:47:52Z</time>
      </trkpt>
      <trkpt lat="43.97753" lon="5.08664">
        <ele>169.199997</ele>
        <time>2012-01-28T09:48:01Z</time>
      </trkpt>
      <trkpt lat="43.9779" lon="5.08678">
        <ele>173.199997</ele>
        <time>2012-01-28T09:48:50Z</time>
      </trkpt>
      <trkpt lat="43.97907" lon="5.08737">
        <ele>165.600006</ele>
        <time>2012-01-28T09:49:25Z</time>
      </trkpt>
      <trkpt lat="43.9794" lon="5.088">
        <ele>164.399994</ele>
        <time>2012-01-28T09:49:49Z</time>
      </trkpt>
      <trkpt lat="43.9804" lon="5.08754">
        <ele>162.800003</ele>
        <time>2012-01-28T09:50:17Z</time>
      </trkpt>
      <trkpt lat="43.98121" lon="5.08818">
        <ele>159.199997</ele>
        <time>2012-01-28T09:50:32Z</time>
      </trkpt>
      <trkpt lat="43.98142" lon="5.08827">
        <ele>154.600006</ele>
        <time>2012-01-28T09:50:39Z</time>
      </trkpt>
      <trkpt lat="43.98147" lon="5.08852">
        <ele>152.199997</ele>
        <time>2012-01-28T09:50:46Z</time>
      </trkpt>
      <trkpt lat="43.98106" lon="5.09006">
        <ele>159.199997</ele>
        <time>2012-01-28T09:51:32Z</time>
      </trkpt>
      <trkpt lat="43.98116" lon="5.09008">
        <ele>159</ele>
        <time>2012-01-28T09:51:37Z</time>
      </trkpt>
      <trkpt lat="43.98152" lon="5.08922">
        <ele>151.399994</ele>
        <time>2012-01-28T09:51:52Z</time>
      </trkpt>
      <trkpt lat="43.98227" lon="5.08881">
        <ele>145.199997</ele>
        <time>2012-01-28T09:52:14Z</time>
      </trkpt>
      <trkpt lat="43.98255" lon="5.08815">
        <ele>141.399994</ele>
        <time>2012-01-28T09:52:59Z</time>
      </trkpt>
      <trkpt lat="43.98301" lon="5.08788">
        <ele>139.800003</ele>
        <time>2012-01-28T09:53:12Z</time>
      </trkpt>
      <trkpt lat="43.98301" lon="5.08788">
        <ele>139.399994</ele>
        <time>2012-01-28T09:53:14Z</time>
      </trkpt>
      <trkpt lat="43.98333" lon="5.08731">
        <ele>135.199997</ele>
        <time>2012-01-28T09:53:55Z</time>
      </trkpt>
      <trkpt lat="43.98336" lon="5.08671">
        <ele>129.600006</ele>
        <time>2012-01-28T09:54:10Z</time>
      </trkpt>
      <trkpt lat="43.98371" lon="5.08598">
        <ele>125.800003</ele>
        <time>2012-01-28T09:54:26Z</time>
      </trkpt>
      <trkpt lat="43.98372" lon="5.08596">
        <ele>125.599998</ele>
        <time>2012-01-28T09:54:27Z</time>
      </trkpt>
      <trkpt lat="43.98324" lon="5.08535">
        <ele>122.599998</ele>
        <time>2012-01-28T09:54:46Z</time>
      </trkpt>
      <trkpt lat="43.98287" lon="5.08509">
        <ele>121.599998</ele>
        <time>2012-01-28T09:54:54Z</time>
      </trkpt>
      <trkpt lat="43.98237" lon="5.08454">
        <ele>117</ele>
        <time>2012-01-28T09:55:05Z</time>
      </trkpt>
      <trkpt lat="43.98203" lon="5.0837">
        <ele>114.800003</ele>
        <time>2012-01-28T09:55:24Z</time>
      </trkpt>
      <trkpt lat="43.98243" lon="5.08392">
        <ele>112.800003</ele>
        <time>2012-01-28T09:56:01Z</time>
      </trkpt>
      <trkpt lat="43.98323" lon="5.08326">
        <ele>108</ele>
        <time>2012-01-28T09:56:22Z</time>
      </trkpt>
      <trkpt lat="43.98333" lon="5.083">
        <ele>107</ele>
        <time>2012-01-28T09:56:27Z</time>
      </trkpt>
      <trkpt lat="43.98381" lon="5.08199">
        <ele>100.800003</ele>
        <time>2012-01-28T09:56:50Z</time>
      </trkpt>
      <trkpt lat="43.98449" lon="5.07997">
        <ele>93</ele>
        <time>2012-01-28T09:57:34Z</time>
      </trkpt>
      <trkpt lat="43.98436" lon="5.07945">
        <ele>91.800003</ele>
        <time>2012-01-28T09:57:43Z</time>
      </trkpt>
      <trkpt lat="43.98442" lon="5.07836">
        <ele>88.400002</ele>
        <time>2012-01-28T09:58:04Z</time>
      </trkpt>
      <trkpt lat="43.98472" lon="5.07735">
        <ele>81.199997</ele>
        <time>2012-01-28T09:58:28Z</time>
      </trkpt>
      <trkpt lat="43.98456" lon="5.07687">
        <ele>79.199997</ele>
        <time>2012-01-28T09:59:34Z</time>
      </trkpt>
      <trkpt lat="43.98725" lon="5.07374">
        <ele>68.199997</ele>
        <time>2012-01-28T10:00:49Z</time>
      </trkpt>
      <trkpt lat="43.98672" lon="5.07282">
        <ele>68.199997</ele>
        <time>2012-01-28T10:01:13Z</time>
      </trkpt>
      <trkpt lat="43.98647" lon="5.07198">
        <ele>68.400002</ele>
        <time>2012-01-28T10:01:29Z</time>
      </trkpt>
      <trkpt lat="43.98634" lon="5.07027">
        <ele>66.400002</ele>
        <time>2012-01-28T10:01:55Z</time>
      </trkpt>
      <trkpt lat="43.98575" lon="5.06891">
        <ele>64.400002</ele>
        <time>2012-01-28T10:02:17Z</time>
      </trkpt>
      <trkpt lat="43.98533" lon="5.0675">
        <ele>61.599998</ele>
        <time>2012-01-28T10:02:49Z</time>
      </trkpt>
      <trkpt lat="43.98525" lon="5.06639">
        <ele>57.799999</ele>
        <time>2012-01-28T10:03:02Z</time>
      </trkpt>
      <trkpt lat="43.98463" lon="5.06376">
        <ele>49.200001</ele>
        <time>2012-01-28T10:03:30Z</time>
      </trkpt>
      <trkpt lat="43.98452" lon="5.06262">
        <ele>47.799999</ele>
        <time>2012-01-28T10:03:43Z</time>
      </trkpt>
      <trkpt lat="43.9846" lon="5.0613">
        <ele>45.599998</ele>
        <time>2012-01-28T10:03:59Z</time>
      </trkpt>
      <trkpt lat="43.98526" lon="5.05757">
        <ele>40.799999</ele>
        <time>2012-01-28T10:04:48Z</time>
      </trkpt>
      <trkpt lat="43.98563" lon="5.05731">
        <ele>40.400002</ele>
        <time>2012-01-28T10:04:57Z</time>
      </trkpt>
      <trkpt lat="43.98581" lon="5.05694">
        <ele>41.599998</ele>
        <time>2012-01-28T10:05:05Z</time>
      </trkpt>
      <trkpt lat="43.98599" lon="5.05672">
        <ele>41.599998</ele>
        <time>2012-01-28T10:05:10Z</time>
      </trkpt>
      <trkpt lat="43.98618" lon="5.0565">
        <ele>40.599998</ele>
        <time>2012-01-28T10:05:16Z</time>
      </trkpt>
      <trkpt lat="43.98713" lon="5.05653">
        <ele>43.799999</ele>
        <time>2012-01-28T10:05:41Z</time>
      </trkpt>
      <trkpt lat="43.98762" lon="5.05624">
        <ele>46.599998</ele>
        <time>2012-01-28T10:05:56Z</time>
      </trkpt>
      <trkpt lat="43.98784" lon="5.05597">
        <ele>47.599998</ele>
        <time>2012-01-28T10:06:04Z</time>
      </trkpt>
      <trkpt lat="43.98833" lon="5.05526">
        <ele>49</ele>
        <time>2012-01-28T10:06:23Z</time>
      </trkpt>
      <trkpt lat="43.98852" lon="5.05518">
        <ele>49.599998</ele>
        <time>2012-01-28T10:06:29Z</time>
      </trkpt>
      <trkpt lat="43.98962" lon="5.05581">
        <ele>53.200001</ele>
        <time>2012-01-28T10:07:08Z</time>
      </trkpt>
      <trkpt lat="43.99067" lon="5.05555">
        <ele>56</ele>
        <time>2012-01-28T10:07:39Z</time>
      </trkpt>
      <trkpt lat="43.99121" lon="5.05502">
        <ele>56.200001</ele>
        <time>2012-01-28T10:07:55Z</time>
      </trkpt>
      <trkpt lat="43.99176" lon="5.05485">
        <ele>56.799999</ele>
        <time>2012-01-28T10:08:10Z</time>
      </trkpt>
      <trkpt lat="43.99323" lon="5.05469">
        <ele>48.599998</ele>
        <time>2012-01-28T10:08:33Z</time>
      </trkpt>
      <trkpt lat="43.99384" lon="5.05516">
        <ele>43.599998</ele>
        <time>2012-01-28T10:08:44Z</time>
      </trkpt>
      <trkpt lat="43.9944" lon="5.05513">
        <ele>39.799999</ele>
        <time>2012-01-28T10:08:55Z</time>
      </trkpt>
      <trkpt lat="43.99461" lon="5.05522">
        <ele>36.200001</ele>
        <time>2012-01-28T10:09:01Z</time>
      </trkpt>
      <trkpt lat="43.99383" lon="5.05322">
        <ele>28.799999</ele>
        <time>2012-01-28T10:09:44Z</time>
      </trkpt>
    </trkseg>
  </trk>
</gpx>